Time;durP1;ratioP1;P1;durP2;ratioP2;P2;SDS_P1;SDS_P2;PMS_P1;PMS_P2;Temp;Humidity;BMP_temperature;BMP_pressure;BME280_temperature;BME280_humidity;BME280_pressure;Samples;Min_cycle;Max_cycle;Signal;HPM_P1;HPM_P2
2022/02/23 00:00:55;;;;;;;18.67;8.53;;;7.60;99.90;;;;;;5012321;28;20259;-66
2022/02/23 00:03:20;;;;;;;10.73;7.43;;;7.50;99.90;;;;;;5012287;28;20731;-68
2022/02/23 00:05:46;;;;;;;9.83;8.73;;;7.40;99.90;;;;;;5010993;28;20673;-66
2022/02/23 00:08:11;;;;;;;12.50;9.03;;;7.30;99.90;;;;;;5012273;28;20263;-66
2022/02/23 00:10:37;;;;;;;12.70;8.93;;;7.30;99.90;;;;;;5012211;28;20574;-65
2022/02/23 00:13:03;;;;;;;11.60;9.10;;;7.30;99.90;;;;;;5012238;28;20673;-66
2022/02/23 00:15:28;;;;;;;11.10;9.60;;;7.30;99.90;;;;;;5011993;28;20208;-65
2022/02/23 00:17:55;;;;;;;11.07;9.53;;;7.30;99.90;;;;;;5012068;28;20164;-66
2022/02/23 00:20:21;;;;;;;11.20;9.37;;;7.20;99.90;;;;;;5012345;28;20180;-66
2022/02/23 00:22:47;;;;;;;10.00;8.10;;;7.20;99.90;;;;;;5011992;28;20168;-66
2022/02/23 00:25:13;;;;;;;10.50;8.00;;;7.10;99.90;;;;;;5011913;28;20246;-66
2022/02/23 00:27:39;;;;;;;10.83;9.07;;;7.10;99.90;;;;;;5012116;28;20168;-65
2022/02/23 00:30:05;;;;;;;9.93;9.13;;;7.10;99.90;;;;;;5012063;28;20234;-67
2022/02/23 00:32:31;;;;;;;10.70;8.50;;;7.10;99.90;;;;;;5010764;28;20176;-67
2022/02/23 00:34:57;;;;;;;13.27;7.90;;;7.10;99.90;;;;;;5011459;28;20227;-67
2022/02/23 00:37:23;;;;;;;9.00;8.13;;;7.00;99.90;;;;;;5011872;28;20176;-67
2022/02/23 00:39:49;;;;;;;9.30;8.27;;;7.00;99.90;;;;;;5011558;28;20187;-67
2022/02/23 00:42:15;;;;;;;13.57;8.43;;;6.90;99.90;;;;;;5012029;28;20168;-67
2022/02/23 00:44:41;;;;;;;7.50;6.83;;;6.90;99.90;;;;;;5011748;28;20234;-67
2022/02/23 00:47:10;;;;;;;7.83;7.30;;;6.90;99.90;;;;;;5012071;28;20203;-67
2022/02/23 00:49:35;;;;;;;9.73;6.93;;;6.90;99.90;;;;;;5011595;28;20176;-67
2022/02/23 00:52:03;;;;;;;14.73;7.63;;;6.80;99.90;;;;;;5011502;28;20172;-67
2022/02/23 00:54:29;;;;;;;10.90;7.73;;;6.80;99.90;;;;;;5011376;28;20203;-67
2022/02/23 00:56:55;;;;;;;8.30;6.93;;;6.70;99.90;;;;;;5011411;28;20182;-67
2022/02/23 00:59:20;;;;;;;7.83;7.13;;;6.60;99.90;;;;;;5011559;28;20259;-67
2022/02/23 01:01:46;;;;;;;8.57;7.13;;;6.60;99.90;;;;;;5017703;28;20257;-67
2022/02/23 01:04:12;;;;;;;9.20;7.77;;;6.60;99.90;;;;;;5017608;28;20196;-67
2022/02/23 01:06:37;;;;;;;11.23;8.27;;;6.60;99.90;;;;;;5018287;28;20721;-67
2022/02/23 01:09:03;;;;;;;8.30;7.60;;;6.60;99.90;;;;;;5017923;28;20179;-67
2022/02/23 01:11:29;;;;;;;10.83;8.10;;;6.60;99.90;;;;;;5018453;28;20183;-66
2022/02/23 01:13:55;;;;;;;10.87;7.97;;;6.60;99.90;;;;;;5017399;28;20691;-67
2022/02/23 01:16:20;;;;;;;8.73;7.27;;;6.50;99.90;;;;;;5018346;28;20756;-68
2022/02/23 01:18:46;;;;;;;8.67;7.43;;;6.50;99.90;;;;;;5018150;28;20168;-67
2022/02/23 01:21:12;;;;;;;11.30;7.97;;;6.40;99.90;;;;;;5017812;28;20696;-67
2022/02/23 01:23:39;;;;;;;8.30;7.50;;;6.40;99.90;;;;;;5017437;28;20199;-67
2022/02/23 01:26:05;;;;;;;7.73;7.03;;;6.40;99.90;;;;;;5017869;28;20176;-67
2022/02/23 01:28:32;;;;;;;9.00;7.13;;;6.30;99.90;;;;;;5017920;28;20318;-67
2022/02/23 01:30:57;;;;;;;8.50;7.57;;;6.30;99.90;;;;;;5017680;28;20168;-66
2022/02/23 01:33:23;;;;;;;7.70;7.00;;;6.30;99.90;;;;;;5017180;28;20269;-67
2022/02/23 01:35:49;;;;;;;13.33;8.40;;;6.30;99.90;;;;;;5017636;28;20253;-67
2022/02/23 01:38:16;;;;;;;10.43;7.17;;;6.30;99.90;;;;;;5017342;28;20271;-67
2022/02/23 01:40:42;;;;;;;11.53;7.70;;;6.30;99.90;;;;;;5017830;28;20211;-67
2022/02/23 01:43:07;;;;;;;10.97;7.47;;;6.30;99.90;;;;;;5016957;28;20202;-66
2022/02/23 01:45:33;;;;;;;13.97;8.07;;;6.20;99.90;;;;;;5030615;28;20534;-66
2022/02/23 01:47:59;;;;;;;8.57;6.80;;;6.20;99.90;;;;;;5037413;28;20175;-66
2022/02/23 01:50:25;;;;;;;12.47;7.47;;;6.20;99.90;;;;;;5037631;28;20180;-66
2022/02/23 01:52:51;;;;;;;12.83;7.47;;;6.10;99.90;;;;;;5031489;28;20211;-67
2022/02/23 01:55:16;;;;;;;11.23;7.53;;;6.10;99.90;;;;;;5017910;28;20200;-67
2022/02/23 01:57:42;;;;;;;11.10;7.40;;;6.10;99.90;;;;;;5017316;28;20183;-67
2022/02/23 02:00:11;;;;;;;9.07;7.27;;;6.00;99.90;;;;;;5017660;28;20190;-66
2022/02/23 02:02:37;;;;;;;14.63;7.73;;;6.00;99.90;;;;;;5017249;28;20450;-66
2022/02/23 02:05:05;;;;;;;11.73;8.27;;;6.00;99.90;;;;;;5017315;28;20563;-67
2022/02/23 02:07:30;;;;;;;13.20;7.30;;;5.90;99.90;;;;;;5017444;28;20176;-66
2022/02/23 02:09:56;;;;;;;14.23;7.40;;;5.90;99.90;;;;;;5017443;28;20259;-67
2022/02/23 02:12:21;;;;;;;15.07;8.10;;;5.80;99.90;;;;;;5014343;28;20172;-66
2022/02/23 02:14:47;;;;;;;12.50;7.13;;;5.80;99.90;;;;;;5013873;28;20645;-67
2022/02/23 02:17:13;;;;;;;8.60;7.70;;;5.70;99.90;;;;;;5014781;28;20192;-66
2022/02/23 02:19:38;;;;;;;9.13;7.53;;;5.70;99.90;;;;;;5014755;28;20172;-66
2022/02/23 02:22:08;;;;;;;17.93;7.60;;;5.60;99.90;;;;;;5014453;28;20564;-66
2022/02/23 02:24:39;;;;;;;20.83;7.80;;;5.60;99.90;;;;;;5013957;28;20699;-66
2022/02/23 02:27:08;;;;;;;13.37;7.67;;;5.60;99.90;;;;;;5014402;28;20168;-66
2022/02/23 02:29:34;;;;;;;10.80;7.67;;;5.60;99.90;;;;;;5013955;28;20188;-66
2022/02/23 02:32:02;;;;;;;7.97;7.27;;;5.60;99.90;;;;;;5013872;28;20646;-67
2022/02/23 02:34:28;;;;;;;9.37;7.20;;;5.60;99.90;;;;;;5014187;28;20661;-65
2022/02/23 02:36:55;;;;;;;17.23;9.17;;;5.60;99.90;;;;;;5013762;28;20182;-66
2022/02/23 02:39:23;;;;;;;9.47;7.60;;;5.60;99.90;;;;;;5013886;28;20200;-66
2022/02/23 02:41:49;;;;;;;12.27;7.60;;;5.50;99.90;;;;;;5014173;28;20168;-65
2022/02/23 02:44:15;;;;;;;10.70;8.70;;;5.50;99.90;;;;;;5013394;28;20565;-65
2022/02/23 02:46:42;;;;;;;11.83;7.87;;;5.50;99.90;;;;;;5012763;28;20176;-66
2022/02/23 02:49:08;;;;;;;10.60;8.20;;;5.40;99.90;;;;;;5013506;28;20182;-65
2022/02/23 02:51:34;;;;;;;9.60;7.40;;;5.40;99.90;;;;;;5013754;28;20183;-66
2022/02/23 02:54:00;;;;;;;13.17;8.07;;;5.40;99.90;;;;;;5012927;28;20223;-66
2022/02/23 02:56:26;;;;;;;15.90;7.97;;;5.40;99.90;;;;;;5013790;28;20175;-66
2022/02/23 02:58:52;;;;;;;13.03;7.93;;;5.40;99.90;;;;;;5013358;28;20604;-66
2022/02/23 03:01:26;;;;;;;9.93;7.90;;;5.40;99.90;;;;;;5013951;28;20172;-66
2022/02/23 03:03:52;;;;;;;10.37;7.73;;;5.40;99.90;;;;;;5012853;28;20188;-66
2022/02/23 03:06:18;;;;;;;12.67;8.07;;;5.40;99.90;;;;;;5013484;28;20263;-66
2022/02/23 03:08:45;;;;;;;12.17;8.10;;;5.40;99.90;;;;;;5013754;28;20176;-66
2022/02/23 03:11:11;;;;;;;13.47;8.60;;;5.40;99.90;;;;;;5013111;28;20200;-65
2022/02/23 03:13:38;;;;;;;10.37;8.27;;;5.40;99.90;;;;;;5013067;28;20271;-66
2022/02/23 03:16:04;;;;;;;10.93;7.33;;;5.40;99.90;;;;;;5012943;28;20290;-67
2022/02/23 03:18:30;;;;;;;8.60;7.50;;;5.30;99.90;;;;;;5013375;28;20252;-66
2022/02/23 03:20:56;;;;;;;12.77;7.57;;;5.30;99.90;;;;;;5012984;28;20717;-66
2022/02/23 03:23:21;;;;;;;11.43;8.10;;;5.20;99.90;;;;;;5012845;28;20192;-66
2022/02/23 03:25:47;;;;;;;11.67;9.23;;;5.20;99.90;;;;;;5012797;28;20187;-66
2022/02/23 03:28:13;;;;;;;11.00;7.77;;;5.20;99.90;;;;;;5013143;28;20604;-65
2022/02/23 03:30:38;;;;;;;9.47;8.00;;;5.20;99.90;;;;;;5012911;28;20184;-66
2022/02/23 03:33:05;;;;;;;11.67;7.47;;;5.10;99.90;;;;;;5012483;28;20241;-66
2022/02/23 03:35:31;;;;;;;10.57;8.03;;;5.10;99.90;;;;;;5012766;28;20685;-66
2022/02/23 03:37:58;;;;;;;14.90;7.23;;;5.00;99.90;;;;;;5012690;28;20537;-66
2022/02/23 03:40:25;;;;;;;8.10;7.40;;;5.00;99.90;;;;;;5012818;28;20474;-65
2022/02/23 03:42:52;;;;;;;11.67;9.77;;;5.00;99.90;;;;;;5012416;28;20539;-66
2022/02/23 03:45:18;;;;;;;11.20;7.60;;;4.90;99.90;;;;;;5012663;28;20323;-65
2022/02/23 03:47:45;;;;;;;8.67;7.73;;;4.90;99.90;;;;;;5012749;28;20544;-67
2022/02/23 03:50:11;;;;;;;9.50;7.73;;;4.90;99.90;;;;;;5011071;28;20187;-66
2022/02/23 03:52:37;;;;;;;8.53;7.40;;;4.90;99.90;;;;;;5012418;28;20180;-66
2022/02/23 03:55:03;;;;;;;9.30;8.13;;;4.90;99.90;;;;;;5012438;28;20208;-66
2022/02/23 03:57:29;;;;;;;13.27;7.30;;;4.90;99.90;;;;;;5012585;28;20172;-65
2022/02/23 03:59:55;;;;;;;10.47;8.83;;;4.90;99.90;;;;;;5012112;28;20176;-67
2022/02/23 04:02:20;;;;;;;8.77;7.57;;;4.80;99.90;;;;;;5012313;28;20176;-67
2022/02/23 04:04:46;;;;;;;13.70;7.60;;;4.80;99.90;;;;;;5012209;28;20239;-66
2022/02/23 04:07:11;;;;;;;17.67;9.00;;;4.80;99.90;;;;;;5012431;28;20187;-66
2022/02/23 04:09:37;;;;;;;9.87;7.80;;;4.80;99.90;;;;;;5012076;28;20597;-67
2022/02/23 04:12:03;;;;;;;11.13;8.70;;;4.80;99.90;;;;;;5011979;28;20187;-67
2022/02/23 04:14:29;;;;;;;8.97;8.40;;;4.80;99.90;;;;;;5011915;28;20207;-66
2022/02/23 04:16:55;;;;;;;12.83;9.20;;;4.80;99.90;;;;;;5012235;28;20668;-67
2022/02/23 04:19:20;;;;;;;13.67;8.83;;;4.70;99.90;;;;;;5012266;28;20180;-65
2022/02/23 04:21:46;;;;;;;10.47;8.70;;;4.70;99.90;;;;;;5012224;28;20180;-66
2022/02/23 04:24:11;;;;;;;18.10;9.07;;;4.70;99.90;;;;;;5011387;28;20204;-66
2022/02/23 04:26:37;;;;;;;13.13;8.67;;;4.60;99.90;;;;;;5012037;28;20176;-67
2022/02/23 04:29:04;;;;;;;14.20;8.50;;;4.60;99.90;;;;;;5011058;28;20553;-65
2022/02/23 04:31:32;;;;;;;8.90;7.70;;;4.50;99.90;;;;;;5012212;28;20176;-66
2022/02/23 04:34:01;;;;;;;17.33;8.83;;;4.50;99.90;;;;;;5011007;28;20212;-67
2022/02/23 04:36:27;;;;;;;25.00;13.00;;;4.50;99.90;;;;;;5010125;28;20325;-66
2022/02/23 04:38:53;;;;;;;9.23;8.33;;;4.40;99.90;;;;;;5011631;28;20183;-66
2022/02/23 04:41:18;;;;;;;17.93;8.73;;;4.40;99.90;;;;;;5012267;28;20168;-66
2022/02/23 04:43:44;;;;;;;17.53;8.90;;;4.40;99.90;;;;;;5010275;28;20203;-66
2022/02/23 04:46:13;;;;;;;11.40;8.83;;;4.30;99.90;;;;;;5011911;28;20174;-67
2022/02/23 04:48:41;;;;;;;16.27;8.53;;;4.30;99.90;;;;;;5011612;28;20177;-66
2022/02/23 04:51:07;;;;;;;10.47;8.00;;;4.20;99.90;;;;;;5011756;28;20226;-66
2022/02/23 04:53:33;;;;;;;9.83;8.30;;;4.20;99.90;;;;;;5011260;28;20204;-66
2022/02/23 04:55:59;;;;;;;14.10;9.07;;;4.20;99.90;;;;;;5010506;28;20216;-67
2022/02/23 04:58:25;;;;;;;15.27;8.80;;;4.20;99.90;;;;;;5011389;28;20172;-66
2022/02/23 05:00:50;;;;;;;15.47;8.27;;;4.20;99.90;;;;;;5011346;28;20590;-67
2022/02/23 05:03:16;;;;;;;14.27;7.90;;;4.10;99.90;;;;;;5011146;28;20202;-66
2022/02/23 05:05:43;;;;;;;14.60;8.20;;;4.10;99.90;;;;;;5011458;28;20545;-66
2022/02/23 05:08:08;;;;;;;15.17;8.83;;;4.10;99.90;;;;;;5010012;28;20192;-66
2022/02/23 05:10:34;;;;;;;10.30;7.80;;;4.10;99.90;;;;;;5010398;28;20226;-66
2022/02/23 05:13:00;;;;;;;14.43;8.73;;;4.10;99.90;;;;;;5011261;28;20187;-65
2022/02/23 05:15:26;;;;;;;14.37;9.07;;;4.10;99.90;;;;;;5011551;28;20211;-65
2022/02/23 05:17:51;;;;;;;13.13;10.07;;;4.10;99.90;;;;;;5011178;28;20176;-66
2022/02/23 05:20:17;;;;;;;11.53;9.93;;;4.10;99.90;;;;;;5011565;28;20172;-66
2022/02/23 05:22:48;;;;;;;9.80;8.93;;;4.10;99.90;;;;;;5010958;28;20175;-69
2022/02/23 05:25:14;;;;;;;11.77;8.60;;;4.10;99.90;;;;;;4991786;28;20183;-66
2022/02/23 05:27:40;;;;;;;17.13;8.73;;;4.10;99.90;;;;;;4991855;28;20639;-68
2022/02/23 05:30:07;;;;;;;13.47;8.30;;;4.00;99.90;;;;;;5010514;28;20681;-66
2022/02/23 05:32:32;;;;;;;14.50;8.80;;;4.00;99.90;;;;;;5011092;28;20168;-68
2022/02/23 05:34:58;;;;;;;15.30;9.20;;;3.90;99.90;;;;;;5010835;28;20215;-68
2022/02/23 05:37:24;;;;;;;11.20;9.33;;;3.90;99.90;;;;;;5011427;28;20234;-67
2022/02/23 05:39:49;;;;;;;10.37;8.63;;;4.00;99.90;;;;;;5011193;28;20172;-67
2022/02/23 05:42:15;;;;;;;14.57;8.10;;;4.00;99.90;;;;;;5011164;28;20176;-68
2022/02/23 05:44:41;;;;;;;15.17;9.30;;;4.00;99.90;;;;;;5011275;28;20259;-67
2022/02/23 05:47:06;;;;;;;14.83;8.73;;;3.90;99.90;;;;;;5013165;28;20180;-68
2022/02/23 05:49:32;;;;;;;17.30;9.30;;;3.90;99.90;;;;;;5015076;28;20179;-68
2022/02/23 05:51:58;;;;;;;10.97;9.53;;;3.90;99.90;;;;;;5014251;28;20204;-66
2022/02/23 05:54:23;;;;;;;15.73;8.73;;;3.90;99.90;;;;;;5014720;28;20302;-68
2022/02/23 05:56:49;;;;;;;15.17;9.13;;;3.80;99.90;;;;;;5014890;28;20558;-67
2022/02/23 05:59:14;;;;;;;13.93;8.73;;;3.80;99.90;;;;;;5014779;28;20223;-68
2022/02/23 06:01:40;;;;;;;11.93;9.60;;;3.70;99.90;;;;;;5013335;28;20586;-67
2022/02/23 06:04:06;;;;;;;16.10;9.87;;;3.70;99.90;;;;;;5013994;28;20200;-68
2022/02/23 06:06:31;;;;;;;10.80;9.10;;;3.70;99.90;;;;;;5014885;28;20180;-68
2022/02/23 06:08:57;;;;;;;17.37;9.03;;;3.70;99.90;;;;;;5014614;28;20230;-67
2022/02/23 06:11:24;;;;;;;11.83;9.07;;;3.60;99.90;;;;;;5014972;28;20180;-67
2022/02/23 06:13:53;;;;;;;15.20;9.60;;;3.50;99.90;;;;;;5013804;28;20196;-68
2022/02/23 06:16:22;;;;;;;11.43;10.53;;;3.50;99.90;;;;;;5014604;28;20175;-67
2022/02/23 06:18:49;;;;;;;11.57;10.40;;;3.40;99.90;;;;;;5014379;28;20848;-67
2022/02/23 06:21:15;;;;;;;10.23;8.97;;;3.30;99.90;;;;;;5014575;28;20274;-66
2022/02/23 06:23:42;;;;;;;15.70;10.20;;;3.30;99.90;;;;;;5014086;28;20612;-67
2022/02/23 06:26:08;;;;;;;11.40;10.33;;;3.30;99.90;;;;;;5012536;28;20218;-67
2022/02/23 06:28:34;;;;;;;15.77;11.83;;;3.30;99.90;;;;;;5014240;28;20207;-67
2022/02/23 06:31:00;;;;;;;16.97;11.23;;;3.20;99.90;;;;;;5013847;28;20632;-67
2022/02/23 06:33:25;;;;;;;15.97;11.03;;;3.20;99.90;;;;;;5013762;28;20283;-67
2022/02/23 06:35:52;;;;;;;13.87;10.27;;;3.20;99.90;;;;;;5013868;28;20269;-66
2022/02/23 06:38:18;;;;;;;15.57;10.20;;;3.20;99.90;;;;;;5012480;28;20184;-67
2022/02/23 06:40:45;;;;;;;14.67;11.00;;;3.30;99.90;;;;;;5014000;28;20168;-68
2022/02/23 06:43:14;;;;;;;19.37;10.20;;;3.30;99.90;;;;;;5013372;28;20207;-68
2022/02/23 06:45:39;;;;;;;20.60;11.60;;;3.30;99.90;;;;;;5014000;28;20207;-67
2022/02/23 06:48:05;;;;;;;13.47;11.43;;;3.40;99.90;;;;;;5013483;28;20673;-68
2022/02/23 06:50:32;;;;;;;15.50;9.50;;;3.50;99.90;;;;;;5013798;28;20265;-68
2022/02/23 06:52:59;;;;;;;14.53;9.73;;;3.50;99.90;;;;;;5013162;28;20179;-68
2022/02/23 06:55:24;;;;;;;15.70;10.27;;;3.60;99.90;;;;;;5013759;28;20210;-68
2022/02/23 06:57:50;;;;;;;14.70;9.90;;;3.70;99.90;;;;;;5012592;28;20180;-67
2022/02/23 07:00:16;;;;;;;16.10;9.20;;;3.80;99.90;;;;;;5013622;28;20227;-67
2022/02/23 07:02:42;;;;;;;16.43;8.83;;;3.80;99.90;;;;;;5012711;28;20187;-66
2022/02/23 07:05:08;;;;;;;16.97;9.60;;;3.90;99.90;;;;;;5012444;28;20278;-68
2022/02/23 07:07:34;;;;;;;20.83;10.00;;;3.90;99.90;;;;;;5013097;28;20286;-67
2022/02/23 07:10:00;;;;;;;16.20;10.67;;;4.00;99.90;;;;;;5013381;28;20294;-66
2022/02/23 07:12:26;;;;;;;14.90;10.93;;;4.00;99.90;;;;;;5012763;28;20679;-67
2022/02/23 07:14:51;;;;;;;20.23;11.60;;;4.10;99.90;;;;;;5013042;28;20298;-68
2022/02/23 07:17:17;;;;;;;15.27;10.37;;;4.20;99.90;;;;;;5011725;28;20184;-68
2022/02/23 07:19:42;;;;;;;20.83;11.27;;;4.20;99.90;;;;;;5013542;28;20247;-69
2022/02/23 07:22:08;;;;;;;14.70;10.20;;;4.30;99.90;;;;;;5012608;28;20180;-66
2022/02/23 07:24:35;;;;;;;20.30;10.17;;;4.40;99.90;;;;;;5012925;28;20192;-68
2022/02/23 07:27:01;;;;;;;17.60;10.40;;;4.40;99.90;;;;;;5012784;28;20172;-67
2022/02/23 07:29:27;;;;;;;18.70;10.07;;;4.40;99.90;;;;;;5012927;28;20653;-68
2022/02/23 07:31:52;;;;;;;24.70;10.10;;;4.50;99.90;;;;;;5012489;28;20172;-67
2022/02/23 07:34:18;;;;;;;22.43;8.93;;;4.60;99.90;;;;;;5011946;28;20215;-68
2022/02/23 07:36:44;;;;;;;21.70;9.60;;;4.90;99.90;;;;;;5012398;28;20195;-68
2022/02/23 07:39:10;;;;;;;12.47;9.03;;;5.20;99.90;;;;;;5012343;28;20215;-67
2022/02/23 07:41:36;;;;;;;13.13;9.70;;;5.60;99.90;;;;;;5012938;28;20227;-67
2022/02/23 07:44:02;;;;;;;12.37;8.40;;;5.90;99.90;;;;;;5011821;28;20196;-67
2022/02/23 07:46:28;;;;;;;9.40;8.40;;;6.20;99.90;;;;;;5012717;28;20175;-67
2022/02/23 07:49:00;;;;;;;10.43;8.47;;;6.50;99.90;;;;;;5012556;28;20699;-67
2022/02/23 07:51:26;;;;;;;12.63;10.57;;;6.90;99.90;;;;;;5012424;28;20649;-67
2022/02/23 07:53:54;;;;;;;11.33;8.50;;;7.10;99.90;;;;;;5011767;28;20330;-67
2022/02/23 07:56:21;;;;;;;9.90;7.83;;;7.20;99.90;;;;;;5012534;28;20530;-67
2022/02/23 07:58:47;;;;;;;12.10;8.33;;;7.40;99.90;;;;;;5012323;28;20319;-67
2022/02/23 08:01:34;;;;;;;11.73;8.27;;;7.60;99.90;;;;;;5012328;28;20502;-68
2022/02/23 08:04:01;;;;;;;11.73;8.30;;;7.80;99.90;;;;;;5011426;28;20575;-67
2022/02/23 08:06:27;;;;;;;10.50;8.20;;;8.00;99.90;;;;;;5010975;28;20173;-67
2022/02/23 08:08:56;;;;;;;8.73;7.17;;;8.20;99.90;;;;;;5011947;28;20271;-67
2022/02/23 08:11:26;;;;;;;15.63;7.80;;;8.40;99.90;;;;;;5011161;28;20168;-67
2022/02/23 08:14:02;;;;;;;8.07;7.30;;;8.50;99.90;;;;;;5011611;28;20196;-67
2022/02/23 08:19:37;;;;;;;11.77;7.30;;;8.70;99.90;;;;;;5009957;28;20290;-67
2022/02/23 08:22:11;;;;;;;12.03;7.43;;;9.00;99.90;;;;;;5011245;28;20186;-66
2022/02/23 08:24:39;;;;;;;14.13;8.07;;;9.10;99.90;;;;;;5011935;28;20671;-68
2022/02/23 08:27:08;;;;;;;8.20;7.40;;;9.50;99.90;;;;;;5011751;28;20262;-67
2022/02/23 08:29:34;;;;;;;11.90;7.83;;;9.80;99.90;;;;;;5011891;28;20594;-67
2022/02/23 08:32:02;;;;;;;10.03;7.50;;;9.80;99.90;;;;;;5011173;28;20673;-67
2022/02/23 08:34:28;;;;;;;13.63;7.57;;;10.00;99.90;;;;;;5011803;28;20212;-67
2022/02/23 08:36:54;;;;;;;10.63;7.00;;;10.00;99.90;;;;;;5011855;28;20554;-67
2022/02/23 08:39:20;;;;;;;8.93;6.90;;;10.10;99.90;;;;;;5011479;28;20184;-67
2022/02/23 08:41:48;;;;;;;11.40;7.43;;;10.30;99.90;;;;;;5011796;28;20172;-67
2022/02/23 08:44:14;;;;;;;11.07;7.43;;;10.50;99.90;;;;;;5010957;28;20636;-67
2022/02/23 08:46:43;;;;;;;10.10;7.07;;;10.60;99.90;;;;;;5011975;28;20211;-67
2022/02/23 08:49:10;;;;;;;14.87;8.50;;;10.70;99.90;;;;;;5011177;28;20716;-68
2022/02/23 08:51:39;;;;;;;9.77;6.97;;;10.70;99.90;;;;;;5010374;28;20188;-67
2022/02/23 08:54:05;;;;;;;9.23;6.80;;;10.70;99.90;;;;;;5010699;28;20212;-67
2022/02/23 08:56:31;;;;;;;9.80;7.20;;;10.60;99.90;;;;;;5011525;28;20340;-66
2022/02/23 08:58:57;;;;;;;11.47;6.33;;;10.80;99.90;;;;;;5011191;28;20183;-67
2022/02/23 09:01:25;;;;;;;11.70;6.40;;;10.90;99.90;;;;;;4993875;28;20185;-67
2022/02/23 09:03:52;;;;;;;9.10;6.37;;;11.20;99.90;;;;;;4991672;28;20200;-66
2022/02/23 09:06:18;;;;;;;9.70;6.50;;;11.40;99.90;;;;;;5011282;28;20180;-66
2022/02/23 09:08:44;;;;;;;10.17;6.23;;;11.70;99.90;;;;;;5011867;28;20626;-67
2022/02/23 09:11:12;;;;;;;12.70;7.50;;;11.70;99.90;;;;;;5011042;28;20638;-67
2022/02/23 09:13:37;;;;;;;10.50;6.70;;;11.70;99.90;;;;;;5011256;28;20219;-68
2022/02/23 09:16:04;;;;;;;9.83;6.03;;;11.80;99.90;;;;;;5011034;28;20215;-67
2022/02/23 09:18:30;;;;;;;8.40;5.63;;;12.00;99.90;;;;;;5011464;28;20233;-67
2022/02/23 09:20:56;;;;;;;13.97;5.93;;;12.10;99.90;;;;;;5011366;28;20267;-67
2022/02/23 09:23:21;;;;;;;6.53;5.73;;;12.20;99.90;;;;;;5014996;28;20608;-67
2022/02/23 09:25:47;;;;;;;11.73;6.50;;;12.20;99.90;;;;;;5015135;28;20192;-67
2022/02/23 09:28:13;;;;;;;11.53;6.10;;;12.20;99.90;;;;;;5014986;28;20176;-68
2022/02/23 09:30:38;;;;;;;10.23;7.17;;;12.20;99.90;;;;;;5014984;28;20642;-67
2022/02/23 09:33:04;;;;;;;10.33;6.20;;;12.60;99.90;;;;;;5014878;28;20215;-67
2022/02/23 09:35:29;;;;;;;9.40;6.37;;;12.90;99.90;;;;;;5015019;28;20565;-67
2022/02/23 09:37:57;;;;;;;6.80;6.20;;;12.90;99.90;;;;;;5015090;28;20660;-67
2022/02/23 09:40:23;;;;;;;9.57;6.97;;;12.80;99.90;;;;;;5014992;28;20195;-67
2022/02/23 09:42:50;;;;;;;10.37;6.50;;;12.70;99.90;;;;;;5014722;28;20172;-67
2022/02/23 09:45:16;;;;;;;6.93;6.03;;;13.00;99.90;;;;;;5014847;28;20713;-67
2022/02/23 09:47:43;;;;;;;10.80;6.40;;;13.30;99.90;;;;;;5014628;28;20267;-68
2022/02/23 09:50:11;;;;;;;11.00;6.87;;;13.20;99.90;;;;;;5014474;28;20180;-67
2022/02/23 09:52:37;;;;;;;9.13;5.93;;;13.40;99.90;;;;;;5014646;28;20265;-66
2022/02/23 09:55:05;;;;;;;9.07;6.20;;;13.50;99.90;;;;;;5014572;28;20634;-67
2022/02/23 09:57:30;;;;;;;7.23;5.70;;;13.60;99.90;;;;;;5015036;28;20223;-67
2022/02/23 09:59:57;;;;;;;9.17;5.80;;;13.90;99.90;;;;;;5014291;28;20184;-66
2022/02/23 10:02:23;;;;;;;8.60;6.07;;;14.20;99.90;;;;;;5014468;28;20696;-67
2022/02/23 10:04:51;;;;;;;7.10;5.47;;;14.50;99.90;;;;;;5014330;28;20204;-67
2022/02/23 10:07:27;;;;;;;11.33;6.67;;;14.50;99.90;;;;;;5014660;28;20184;-67
2022/02/23 10:09:54;;;;;;;10.77;6.20;;;14.40;99.90;;;;;;5014229;28;20184;-66
2022/02/23 10:12:26;;;;;;;7.30;5.67;;;14.30;99.90;;;;;;5014316;28;20529;-67
2022/02/23 10:15:16;;;;;;;12.63;6.90;;;14.20;99.90;;;;;;5013965;28;20207;-67
2022/02/23 10:17:46;;;;;;;7.63;6.77;;;14.30;99.90;;;;;;5012880;28;20180;-67
2022/02/23 10:20:34;;;;;;;6.23;5.63;;;14.60;99.90;;;;;;5012973;28;20255;-67
2022/02/23 10:23:06;;;;;;;9.70;6.47;;;14.90;99.90;;;;;;5013302;28;20184;-68
2022/02/23 10:25:35;;;;;;;7.90;5.50;;;15.30;99.90;;;;;;5012147;28;20184;-67
2022/02/23 10:28:11;;;;;;;9.37;5.23;;;15.50;99.90;;;;;;5012966;28;20275;-67
2022/02/23 10:30:47;;;;;;;17.57;6.43;;;15.60;99.90;;;;;;5013100;28;20167;-67
2022/02/23 10:33:19;;;;;;;13.83;5.77;;;15.90;99.90;;;;;;5012368;28;20216;-68
2022/02/23 10:36:18;;;;;;;6.13;5.50;;;15.90;99.90;;;;;;5013648;28;20552;-67
2022/02/23 10:38:46;;;;;;;9.27;5.73;;;15.90;99.90;;;;;;5014023;28;20180;-68
2022/02/23 10:41:25;;;;;;;8.47;6.47;;;15.90;99.90;;;;;;5013590;28;20187;-68
2022/02/23 10:43:52;;;;;;;6.97;5.27;;;15.70;99.90;;;;;;5013531;28;20200;-67
2022/02/23 10:46:20;;;;;;;12.07;5.83;;;15.60;99.90;;;;;;5013398;28;20271;-67
2022/02/23 10:48:52;;;;;;;10.57;6.47;;;15.80;99.90;;;;;;5013274;28;20184;-67
2022/02/23 10:51:24;;;;;;;9.73;6.00;;;15.80;99.90;;;;;;5013787;28;20262;-67
2022/02/23 10:53:51;;;;;;;8.83;5.23;;;16.00;99.90;;;;;;5013073;28;20279;-67
2022/02/23 10:56:19;;;;;;;7.87;5.67;;;15.90;99.90;;;;;;5012863;28;20692;-67
2022/02/23 10:58:45;;;;;;;9.20;5.63;;;15.70;99.90;;;;;;5013340;28;20176;-67
2022/02/23 11:01:11;;;;;;;7.20;5.50;;;15.70;99.90;;;;;;5013514;28;20180;-66
2022/02/23 11:03:37;;;;;;;8.40;5.00;;;15.50;99.90;;;;;;5011931;28;20208;-68
2022/02/23 11:06:03;;;;;;;7.03;5.70;;;15.50;99.90;;;;;;5013580;28;20203;-67
2022/02/23 11:08:29;;;;;;;8.13;5.50;;;15.20;99.90;;;;;;5013076;28;20223;-67
2022/02/23 11:10:55;;;;;;;7.53;5.23;;;15.00;99.90;;;;;;5013253;28;20728;-68
2022/02/23 11:13:22;;;;;;;7.93;5.23;;;15.00;99.90;;;;;;5012645;28;20196;-66
2022/02/23 11:15:50;;;;;;;6.03;5.37;;;15.00;99.90;;;;;;5012316;28;20199;-67
2022/02/23 11:18:20;;;;;;;9.27;5.47;;;15.10;99.90;;;;;;5013060;28;20204;-67
2022/02/23 11:20:48;;;;;;;7.77;5.37;;;15.00;99.90;;;;;;5012830;28;20190;-67
2022/02/23 11:23:24;;;;;;;6.00;5.20;;;15.20;99.90;;;;;;5012679;28;20283;-66
2022/02/23 11:25:55;;;;;;;12.40;5.50;;;15.50;99.90;;;;;;5012892;28;20187;-67
2022/02/23 11:28:30;;;;;;;6.53;5.50;;;16.10;99.90;;;;;;5012803;28;20267;-67
2022/02/23 11:30:59;;;;;;;6.70;5.23;;;15.80;99.90;;;;;;5012274;28;20183;-68
2022/02/23 11:33:46;;;;;;;7.60;5.30;;;15.70;99.90;;;;;;5012459;28;20204;-67
2022/02/23 11:36:21;;;;;;;6.90;5.50;;;15.70;99.90;;;;;;5012838;28;20561;-67
2022/02/23 11:38:49;;;;;;;6.63;5.00;;;15.60;99.90;;;;;;5012723;28;20181;-67
2022/02/23 11:41:25;;;;;;;7.00;5.70;;;15.60;99.90;;;;;;5012440;28;20180;-68
2022/02/23 11:44:20;;;;;;;7.43;5.07;;;15.70;99.90;;;;;;5011855;28;20676;-67
2022/02/23 11:47:09;;;;;;;6.23;5.30;;;15.80;99.90;;;;;;5012033;28;20672;-67
2022/02/23 11:49:35;;;;;;;5.47;4.97;;;15.80;99.90;;;;;;5012291;28;20180;-67
2022/02/23 11:52:03;;;;;;;8.63;5.80;;;15.80;99.90;;;;;;5011853;28;20214;-67
2022/02/23 11:54:57;;;;;;;6.30;5.10;;;15.60;99.90;;;;;;5012319;28;20216;-68
2022/02/23 11:57:38;;;;;;;6.03;4.90;;;15.60;99.90;;;;;;5012214;28;20172;-67
2022/02/23 12:00:07;;;;;;;5.33;4.83;;;15.20;99.90;;;;;;5012116;28;20175;-67
2022/02/23 12:02:33;;;;;;;6.67;5.30;;;15.10;99.90;;;;;;5012254;28;20302;-68
2022/02/23 12:04:59;;;;;;;8.63;5.53;;;15.10;99.90;;;;;;5012013;28;20226;-67
2022/02/23 12:07:26;;;;;;;6.03;5.50;;;15.00;99.90;;;;;;5012718;28;20164;-67
2022/02/23 12:09:58;;;;;;;7.27;5.60;;;14.90;99.90;;;;;;5012033;28;20176;-67
2022/02/23 12:12:37;;;;;;;11.83;6.07;;;15.00;99.90;;;;;;5012028;28;20251;-67
2022/02/23 12:15:26;;;;;;;6.73;5.47;;;15.20;99.90;;;;;;5009772;28;20265;-68
2022/02/23 12:17:54;;;;;;;5.60;5.10;;;15.40;99.90;;;;;;5006788;28;20192;-67
2022/02/23 12:20:35;;;;;;;6.63;5.77;;;15.30;99.90;;;;;;5011719;28;20187;-67
2022/02/23 12:23:07;;;;;;;8.67;5.60;;;15.40;99.90;;;;;;5011871;28;20172;-66
2022/02/23 12:25:51;;;;;;;7.57;5.33;;;15.80;99.90;;;;;;5011922;28;20182;-68
2022/02/23 12:28:19;;;;;;;5.53;5.03;;;16.10;99.90;;;;;;5011778;28;20642;-68
2022/02/23 12:31:00;;;;;;;7.77;5.30;;;16.00;99.90;;;;;;5012010;28;20194;-67
2022/02/23 12:33:26;;;;;;;6.33;4.87;;;16.10;99.90;;;;;;5011753;28;20246;-67
2022/02/23 12:35:54;;;;;;;6.23;5.63;;;15.90;99.90;;;;;;5011742;28;20243;-66
2022/02/23 12:38:27;;;;;;;7.03;5.70;;;15.90;99.90;;;;;;5011880;28;20564;-68
2022/02/23 12:40:55;;;;;;;8.63;5.33;;;15.90;99.90;;;;;;5011407;28;20203;-67
2022/02/23 12:43:20;;;;;;;5.47;4.80;;;15.80;99.90;;;;;;5011462;28;20192;-67
2022/02/23 12:45:57;;;;;;;7.73;5.00;;;15.90;99.90;;;;;;5011830;28;20259;-67
2022/02/23 12:48:30;;;;;;;6.10;5.17;;;16.00;99.90;;;;;;5011783;28;20676;-67
2022/02/23 12:50:57;;;;;;;9.50;5.57;;;15.80;99.90;;;;;;5011462;28;20188;-67